Kezdőlap
METAR-TAF:

METAR-TAF

Repülőterek :

Clyde, Nunavut, Kanada

földrajzi szélesség: 70-29N, földrajzi hosszúság: 068-31W, magasság: 25 m

Jelenlegi meteorológiai megfigyelések

A jelentés 1 órával és 9 perccel ezelõtt készült, 19:00 UTC
Nyugat-délnyugati szél 7 kt
Hőmérséklet -31°C
Páratartalom 75%
Légköri nyomás 999 hPa
Látótávolság: 14.5 km
Derült ég

METAR: CYCY 221900Z AUTO 25007KT 9SM CLR M31/M34 A2951 RMK SLP001

Idő: 15:09 (20:09 UTC)

Előrejelzés

A jelentés 1 órával és 31 perccel ezelõtt készült, 18:38 UTC
Az előrejelzés 22-én 19 óra UTC és 23-én 07 óra UTC között érvényes
Nyugat-délnyugati szél 5 kt
Látótávolság: 10 km
Kevés felhő 2000 lábon
Szórványos felhőzet 10000 lábon
22-én 22 óra UTC és 22-én 24 óra UTC között fokozatosan kialakuló
Északnyugati szél 8 kt

TAF: CYCY 221838Z 2219/2307 25005KT P6SM FEW020 SCT100 BECMG 2222/2224 32008KT RMK FCST BASED ON AUTO OBS. NXT FCST BY 230100Z

Meteorológiai megfigyelések és előrejelzések több, mint 4000 repülőtéren (METAR és TAF jelentéseket).

A térképen piros és sárga pontok jelzik az elérhető meteorológiai állomásokat.

Mozgassa az egeret a pont fölött, hogy megjelenjen az állomás neve.

Azután kattintson az időjárási megfigyelések és előrejelzések megtekintéséhez.

A térkép megváltoztatása: kattintson a fekete keresztel jelölt zöld gombra ráközelítéshez, a vonallal jelölt zöld gombra távolításhoz, vagy a zöld nyilakra a szomszédos térképek eléréséhez.


METAR-TAF: